Time;durP1;ratioP1;P1;durP2;ratioP2;P2;SDS_P1;SDS_P2;PMS_P1;PMS_P2;Temp;Humidity;BMP_temperature;BMP_pressure;BME280_temperature;BME280_humidity;BME280_pressure;Samples;Min_cycle;Max_cycle;Signal;HPM_P1;HPM_P2
2022/07/02 00:01:00;;;;;;;;;3.00;2.00;;;;;20.00;58.59;101850.72;5076331;28;45264;-80
2022/07/02 00:03:36;;;;;;;;;2.75;2.00;;;;;19.99;58.98;101851.56;5076697;28;45494;-80
2022/07/02 00:06:03;;;;;;;;;2.75;2.00;;;;;19.97;58.67;101850.69;5075608;27;46135;-81
2022/07/02 00:08:29;;;;;;;;;3.75;2.25;;;;;19.94;59.10;101852.38;5076252;28;45802;-80
2022/07/02 00:10:57;;;;;;;;;2.25;1.00;;;;;19.93;59.22;101844.44;5076303;28;45363;-80
2022/07/02 00:13:24;;;;;;;;;2.00;2.00;;;;;19.91;60.09;101849.66;5075953;28;45296;-81
2022/07/02 00:15:51;;;;;;;;;5.00;4.00;;;;;19.89;60.65;101851.38;5075588;28;45513;-81
2022/07/02 00:18:19;;;;;;;;;5.25;3.50;;;;;19.88;60.42;101848.72;5057273;28;45906;-80
2022/07/02 00:20:47;;;;;;;;;7.00;5.00;;;;;19.88;61.49;101846.97;5076167;28;45470;-80
2022/07/02 00:23:13;;;;;;;;;4.00;4.00;;;;;19.87;61.56;101853.06;5078314;28;45486;-80
2022/07/02 00:25:44;;;;;;;;;4.50;3.25;;;;;19.85;61.45;101852.13;5081655;27;45423;-81
2022/07/02 00:28:16;;;;;;;;;5.75;4.50;;;;;19.83;62.21;101845.94;5081427;28;45853;-80
2022/07/02 00:30:45;;;;;;;;;4.25;3.00;;;;;19.84;62.36;101854.72;5079876;28;45433;-79
2022/07/02 00:33:14;;;;;;;;;3.00;3.00;;;;;19.76;62.45;101852.81;5062405;28;45584;-80
2022/07/02 00:35:40;;;;;;;;;4.00;4.00;;;;;19.77;62.81;101857.22;5079259;27;45414;-80
2022/07/02 00:38:07;;;;;;;;;4.25;3.75;;;;;19.72;62.74;101847.44;5078951;28;45858;-80
2022/07/02 00:40:34;;;;;;;;;4.00;4.00;;;;;19.73;63.31;101846.59;5079135;28;45303;-80
2022/07/02 00:43:00;;;;;;;;;4.00;4.00;;;;;19.74;63.53;101849.25;5079685;28;45777;-80
2022/07/02 00:45:26;;;;;;;;;3.00;3.00;;;;;19.73;63.60;101844.84;5079043;27;45419;-80
2022/07/02 00:47:54;;;;;;;;;5.25;4.25;;;;;19.72;64.42;101842.19;5078902;28;45248;-80
2022/07/02 00:50:21;;;;;;;;;3.50;3.50;;;;;19.69;64.46;101840.38;5078832;28;45410;-80
2022/07/02 00:52:46;;;;;;;;;2.75;2.50;;;;;19.71;66.14;101840.41;5079172;28;45509;-80
2022/07/02 00:55:13;;;;;;;;;5.75;3.00;;;;;19.70;66.93;101841.25;5078474;28;45346;-80
2022/07/02 00:57:39;;;;;;;;;3.00;3.00;;;;;19.64;67.05;101827.13;5078821;28;45766;-81
2022/07/02 01:00:07;;;;;;;;;5.25;3.25;;;;;19.64;67.48;101829.75;5078412;27;45411;-80
2022/07/02 01:02:35;;;;;;;;;3.25;3.00;;;;;19.61;68.60;101832.31;5079222;28;45585;-80
2022/07/02 01:05:00;;;;;;;;;1.75;1.75;;;;;19.60;69.71;101832.25;5078445;28;45521;-81
2022/07/02 01:07:27;;;;;;;;;2.00;2.00;;;;;19.59;69.26;101830.50;5078991;27;45268;-80
2022/07/02 01:12:41;;;;;;;;;3.50;3.50;;;;;19.56;71.64;101828.66;5078868;27;45409;-81
2022/07/02 01:15:07;;;;;;;;;3.50;2.75;;;;;19.54;72.20;101833.03;5078295;28;45347;-81
2022/07/02 01:17:33;;;;;;;;;2.50;2.25;;;;;19.53;72.92;101825.09;5078434;28;45297;-80
2022/07/02 01:19:58;;;;;;;;;3.00;3.00;;;;;19.53;73.29;101832.97;5078953;28;45310;-80
2022/07/02 01:22:34;;;;;;;;;2.50;2.50;;;;;19.52;73.81;101839.97;5077594;28;45597;-81
2022/07/02 01:25:00;;;;;;;;;3.00;3.00;;;;;19.52;74.66;101842.59;5078071;27;45681;-81
2022/07/02 01:27:25;;;;;;;;;3.00;2.50;;;;;19.52;74.45;101837.34;5078730;28;45347;-81
2022/07/02 01:29:52;;;;;;;;;2.50;2.50;;;;;19.50;74.32;101833.78;5078639;28;45320;-81
2022/07/02 01:32:18;;;;;;;;;4.00;3.00;;;;;19.47;74.42;101845.13;5060295;28;45592;-81
2022/07/02 01:34:49;;;;;;;;;5.50;2.75;;;;;19.46;75.53;101848.59;5077487;28;45391;-81
2022/07/02 01:37:16;;;;;;;;;5.00;4.00;;;;;19.44;75.98;101849.38;5061612;28;45871;-81
2022/07/02 01:39:43;;;;;;;;;3.00;3.00;;;;;19.42;75.28;101851.09;5078382;28;45550;-81
2022/07/02 01:42:09;;;;;;;;;4.50;3.25;;;;;19.38;75.85;101846.63;5079303;28;45305;-81
2022/07/02 01:44:36;;;;;;;;;2.75;2.75;;;;;19.36;76.29;101850.94;5079281;27;46500;-81
2022/07/02 01:47:08;;;;;;;;;6.00;3.00;;;;;19.34;77.10;101849.16;5078696;28;45704;-82
2022/07/02 01:49:35;;;;;;;;;4.00;3.50;;;;;19.33;77.36;101846.50;5078814;27;45304;-81
2022/07/02 01:52:02;;;;;;;;;3.00;3.00;;;;;19.31;77.97;101845.56;5061583;28;45362;-81
2022/07/02 01:54:28;;;;;;;;;2.00;2.00;;;;;19.27;78.90;101835.84;5078382;28;46467;-82
2022/07/02 01:56:54;;;;;;;;;4.75;3.25;;;;;19.27;78.78;101846.38;5077924;28;45284;-81
2022/07/02 01:59:20;;;;;;;;;3.50;3.50;;;;;19.21;78.19;101843.56;5077842;28;45361;-81
2022/07/02 02:01:45;;;;;;;;;4.25;3.00;;;;;19.20;79.37;101842.69;5078105;28;45581;-81
2022/07/02 02:04:11;;;;;;;;;4.25;4.25;;;;;19.13;79.60;101839.00;5077466;28;46330;-81
2022/07/02 02:06:37;;;;;;;;;4.00;4.00;;;;;19.12;80.41;101831.06;5077730;28;45453;-81
2022/07/02 02:09:03;;;;;;;;;4.00;3.00;;;;;19.07;80.31;101830.09;5077615;27;45343;-80
2022/07/02 02:11:29;;;;;;;;;5.00;3.00;;;;;19.08;79.67;101832.75;5078186;28;45613;-81
2022/07/02 02:13:58;;;;;;;;;4.00;3.00;;;;;19.10;79.98;101831.06;5059689;28;46545;-81
2022/07/02 02:16:27;;;;;;;;;5.00;4.50;;;;;19.11;79.16;101831.97;5077143;28;45497;-81
2022/07/02 02:18:54;;;;;;;;;3.75;3.75;;;;;19.11;80.22;101834.59;5077799;27;45427;-81
2022/07/02 02:21:21;;;;;;;;;4.50;3.75;;;;;19.09;80.58;101833.66;5077585;28;45208;-81
2022/07/02 02:23:47;;;;;;;;;3.00;3.00;;;;;19.05;80.31;101830.06;5077493;28;46290;-81
2022/07/02 02:26:13;;;;;;;;;4.50;4.50;;;;;19.02;81.19;101830.84;5077174;28;45268;-81
2022/07/02 02:28:38;;;;;;;;;4.50;3.50;;;;;18.96;81.34;101824.53;5077502;28;45291;-81
2022/07/02 02:31:04;;;;;;;;;4.25;4.00;;;;;18.91;81.88;101819.13;5077543;28;45303;-81
2022/07/02 02:33:30;;;;;;;;;4.00;4.00;;;;;18.90;82.20;101821.72;5077977;28;45514;-82
2022/07/02 02:35:55;;;;;;;;;7.00;4.50;;;;;18.92;82.22;101820.03;5079362;27;45492;-81
2022/07/02 02:38:21;;;;;;;;;4.75;4.25;;;;;18.91;82.58;101819.13;5079826;28;45267;-81
2022/07/02 02:40:46;;;;;;;;;6.75;5.00;;;;;18.91;82.33;101820.88;5077812;28;45343;-81
2022/07/02 02:43:12;;;;;;;;;6.75;3.50;;;;;18.88;81.69;101819.06;5076887;27;46329;-81
2022/07/02 02:45:37;;;;;;;;;7.25;4.00;;;;;18.86;82.75;101815.53;5077166;28;45467;-81
2022/07/02 02:48:03;;;;;;;;;3.50;3.00;;;;;18.88;83.93;101822.56;5076730;28;45564;-81
2022/07/02 02:50:29;;;;;;;;;4.25;3.25;;;;;18.84;83.20;101817.22;5077554;28;45588;-81
2022/07/02 02:52:54;;;;;;;;;4.75;4.25;;;;;18.80;83.41;101816.25;5077279;27;45207;-82
2022/07/02 02:55:20;;;;;;;;;3.00;3.00;;;;;18.80;82.64;101811.00;5076636;27;45322;-81
2022/07/02 02:57:46;;;;;;;;;5.00;4.00;;;;;18.79;83.49;101808.34;5077096;28;45434;-81
2022/07/02 03:00:12;;;;;;;;;4.75;4.75;;;;;18.78;84.39;101811.81;5076778;27;45489;-81
2022/07/02 03:02:38;;;;;;;;;4.25;4.00;;;;;18.77;84.86;101804.78;5076852;28;45344;-81
2022/07/02 03:05:03;;;;;;;;;5.25;4.25;;;;;18.78;84.34;101809.19;5076459;28;45521;-81
2022/07/02 03:07:29;;;;;;;;;5.75;4.00;;;;;18.79;84.72;101806.59;5077285;28;45334;-81
2022/07/02 03:09:55;;;;;;;;;4.50;4.50;;;;;18.76;84.48;101808.25;5059157;28;45644;-81
2022/07/02 03:12:20;;;;;;;;;4.00;4.00;;;;;18.74;84.11;101813.44;5058142;28;45510;-81
2022/07/02 03:14:46;;;;;;;;;5.00;5.00;;;;;18.71;84.21;101814.25;5076545;28;45437;-81
2022/07/02 03:17:11;;;;;;;;;4.50;4.00;;;;;18.69;85.35;101815.94;5076394;28;45493;-81
2022/07/02 03:19:37;;;;;;;;;3.00;3.00;;;;;18.69;85.16;101821.19;5076810;28;45526;-81
2022/07/02 03:22:03;;;;;;;;;6.00;3.50;;;;;18.67;85.53;101822.91;5076176;28;45432;-81
2022/07/02 03:24:28;;;;;;;;;5.75;3.00;;;;;18.67;85.45;101819.38;5058738;28;45319;-81
2022/07/02 03:26:54;;;;;;;;;6.00;3.50;;;;;18.64;85.27;101814.03;5076566;28;45386;-81
2022/07/02 03:29:19;;;;;;;;;5.00;5.00;;;;;18.64;85.49;101820.19;5076695;28;45311;-81
2022/07/02 03:31:45;;;;;;;;;4.25;3.25;;;;;18.63;84.90;101818.41;5058990;28;46141;-81
2022/07/02 03:34:10;;;;;;;;;4.25;4.00;;;;;18.63;86.61;101812.25;5059425;28;45291;-81
2022/07/02 03:36:36;;;;;;;;;5.00;4.00;;;;;18.65;86.10;101813.19;5076866;28;45242;-81
2022/07/02 03:39:02;;;;;;;;;3.25;3.25;;;;;18.65;85.87;101814.09;5077408;28;45641;-82
2022/07/02 03:41:27;;;;;;;;;4.00;4.00;;;;;18.61;85.19;101811.34;5077167;28;46115;-81
2022/07/02 03:43:53;;;;;;;;;5.00;5.00;;;;;18.59;86.74;101818.28;5076355;27;45790;-81
2022/07/02 03:46:18;;;;;;;;;4.75;4.25;;;;;18.57;86.60;101818.25;5076164;28;45331;-81
2022/07/02 03:48:44;;;;;;;;;6.00;4.00;;;;;18.53;86.70;101817.25;5076540;28;45319;-81
2022/07/02 03:51:10;;;;;;;;;4.00;4.00;;;;;18.50;87.06;101814.56;5075864;27;45402;-81
2022/07/02 03:53:36;;;;;;;;;3.50;3.00;;;;;18.53;87.23;101824.25;5076143;28;45315;-81
2022/07/02 03:56:02;;;;;;;;;5.50;4.25;;;;;18.54;87.32;101815.53;5076065;28;45331;-81
2022/07/02 03:58:29;;;;;;;;;7.50;5.25;;;;;18.55;87.56;101819.94;5077644;28;45605;-81
2022/07/02 04:00:54;;;;;;;;;4.00;4.00;;;;;18.57;87.19;101815.63;5080179;27;46351;-81
2022/07/02 04:03:20;;;;;;;;;4.75;4.00;;;;;18.53;87.71;101806.75;5079413;27;45379;-81
2022/07/02 04:05:46;;;;;;;;;4.50;4.50;;;;;18.49;87.13;101810.16;5061742;28;45466;-82
2022/07/02 04:08:11;;;;;;;;;8.00;4.25;;;;;18.45;88.53;101810.03;5079876;27;45232;-81
2022/07/02 04:10:37;;;;;;;;;5.00;4.00;;;;;18.46;88.81;101820.56;5079755;28;46485;-81
2022/07/02 04:13:03;;;;;;;;;5.50;4.00;;;;;18.45;88.91;101816.16;5079350;28;45355;-82
2022/07/02 04:15:29;;;;;;;;;7.75;4.00;;;;;18.49;88.90;101815.41;5079962;28;45269;-82
2022/07/02 04:17:54;;;;;;;;;4.25;3.50;;;;;18.49;88.51;101812.78;5079994;27;45556;-82
2022/07/02 04:20:20;;;;;;;;;4.25;4.25;;;;;18.51;88.44;101818.06;5079292;28;46282;-82
2022/07/02 04:22:46;;;;;;;;;8.00;6.50;;;;;18.51;89.11;101818.97;5079303;27;45357;-82
2022/07/02 04:25:11;;;;;;;;;5.50;5.00;;;;;18.48;88.85;101816.25;5079150;28;45333;-81
2022/07/02 04:27:37;;;;;;;;;7.00;6.00;;;;;18.44;88.87;101814.38;5079616;27;45528;-81
2022/07/02 04:30:03;;;;;;;;;5.25;5.25;;;;;18.48;88.82;101817.97;5079076;28;45354;-81
2022/07/02 04:32:28;;;;;;;;;5.00;5.00;;;;;18.47;89.30;101819.72;5079663;27;46015;-81
2022/07/02 04:34:54;;;;;;;;;5.00;5.00;;;;;18.46;89.24;101822.28;5081031;28;45336;-81
2022/07/02 04:37:20;;;;;;;;;7.50;5.00;;;;;18.45;89.52;101815.28;5081666;27;45632;-81
2022/07/02 04:39:45;;;;;;;;;5.00;5.00;;;;;18.47;89.50;101822.31;5081604;28;45355;-81
2022/07/02 04:42:11;;;;;;;;;6.00;5.25;;;;;18.48;89.31;101825.81;5078619;28;45175;-81
2022/07/02 04:44:36;;;;;;;;;6.25;5.75;;;;;18.49;89.67;101827.59;5079578;28;45359;-82
2022/07/02 04:47:02;;;;;;;;;6.00;6.00;;;;;18.46;89.16;101823.16;5079095;28;45525;-81
2022/07/02 04:49:28;;;;;;;;;8.00;5.00;;;;;18.49;89.18;101828.50;5079293;28;45299;-81
2022/07/02 04:51:53;;;;;;;;;5.50;5.00;;;;;18.49;88.79;101820.66;5078826;27;45236;-81
2022/07/02 04:54:19;;;;;;;;;7.00;4.50;;;;;18.50;89.61;101825.06;5078912;27;45228;-81
2022/07/02 04:56:45;;;;;;;;;6.50;5.50;;;;;18.50;89.11;101824.16;5077737;27;45518;-81
2022/07/02 04:59:10;;;;;;;;;6.25;5.00;;;;;18.52;89.60;101825.06;5078475;28;46101;-81
2022/07/02 05:01:36;;;;;;;;;5.75;5.25;;;;;18.53;89.33;101819.88;5078602;28;45286;-81
2022/07/02 05:04:02;;;;;;;;;5.75;5.00;;;;;18.54;89.18;101821.66;5078592;27;45427;-81
2022/07/02 05:06:27;;;;;;;;;6.00;6.00;;;;;18.56;89.97;101819.97;5079342;27;45351;-81
2022/07/02 05:08:53;;;;;;;;;6.25;5.75;;;;;18.56;89.75;101822.59;5078666;28;45764;-81
2022/07/02 05:11:19;;;;;;;;;7.25;6.00;;;;;18.54;90.00;101819.03;5078421;28;45378;-81
2022/07/02 05:13:49;;;;;;;;;7.00;6.25;;;;;18.55;90.29;101820.81;5078711;28;45314;-81
2022/07/02 05:16:17;;;;;;;;;4.00;4.00;;;;;18.55;90.15;101818.19;5078433;27;45470;-81
2022/07/02 05:18:43;;;;;;;;;6.00;6.00;;;;;18.54;89.97;101821.66;5078469;28;45370;-81
2022/07/02 05:21:09;;;;;;;;;7.00;7.00;;;;;18.57;90.54;101826.13;5076889;27;45438;-81
2022/07/02 05:23:34;;;;;;;;;7.00;5.00;;;;;18.60;90.42;101820.06;5078702;27;45767;-82
2022/07/02 05:26:00;;;;;;;;;6.00;5.75;;;;;18.59;90.72;101819.16;5060222;28;45403;-82
2022/07/02 05:28:26;;;;;;;;;7.25;6.50;;;;;18.60;91.07;101828.81;5080474;28;46135;-81
2022/07/02 05:30:52;;;;;;;;;6.25;6.25;;;;;18.59;90.80;101823.53;5079434;27;45731;-82
2022/07/02 05:33:18;;;;;;;;;8.25;7.00;;;;;18.58;91.17;101819.13;5078489;28;45331;-82
2022/07/02 05:35:43;;;;;;;;;8.50;7.50;;;;;18.58;90.43;101819.13;5078930;27;45534;-82
2022/07/02 05:38:09;;;;;;;;;6.75;6.50;;;;;18.60;90.78;101820.06;5078501;27;46174;-82
2022/07/02 05:40:35;;;;;;;;;9.00;8.25;;;;;18.60;90.82;101822.69;5078356;28;45390;-82
2022/07/02 05:43:01;;;;;;;;;8.25;7.25;;;;;18.62;90.85;101823.63;5078270;28;45359;-81
2022/07/02 05:45:28;;;;;;;;;8.75;7.75;;;;;18.63;90.98;101822.75;5086998;27;45497;-82
2022/07/02 05:47:54;;;;;;;;;7.00;6.25;;;;;18.64;90.82;101816.66;5079393;28;45513;-81
2022/07/02 05:50:20;;;;;;;;;8.50;7.00;;;;;18.63;90.70;101813.16;5077894;28;45451;-82
2022/07/02 05:52:46;;;;;;;;;7.00;7.00;;;;;18.68;90.59;101815.91;5079407;28;45383;-82
2022/07/02 05:55:11;;;;;;;;;7.25;5.00;;;;;18.69;90.90;101818.56;5060628;28;45453;-82
2022/07/02 05:57:38;;;;;;;;;11.00;9.50;;;;;18.72;90.31;101816.03;5077888;28;46397;-82
2022/07/02 06:00:09;;;;;;;;;7.25;7.00;;;;;18.77;89.69;101821.41;5077601;27;45999;-82
2022/07/02 06:02:36;;;;;;;;;7.50;6.75;;;;;18.79;88.60;101824.97;5078346;28;45382;-81
2022/07/02 06:07:38;;;;;;;;;8.75;8.25;;;;;18.80;87.94;101825.84;5078246;28;45558;-82
2022/07/02 06:07:51;;;;;;;;;9.00;8.75;;;;;18.84;88.12;101819.84;5078130;27;45340;-81
2022/07/02 06:10:19;;;;;;;;;8.75;8.75;;;;;18.90;87.53;101822.59;5059755;28;45905;-82
2022/07/02 06:12:50;;;;;;;;;8.75;7.75;;;;;18.92;87.39;101814.78;5059870;28;45430;-81
2022/07/02 06:15:17;;;;;;;;;6.00;6.00;;;;;18.95;87.62;101818.41;5078436;28;45488;-82
2022/07/02 06:17:43;;;;;;;;;9.00;8.00;;;;;18.99;87.46;101819.38;5085427;27;46159;-82
2022/07/02 06:20:09;;;;;;;;;8.25;8.25;;;;;19.06;87.31;101826.56;5085230;27;45429;-82
2022/07/02 06:22:35;;;;;;;;;7.25;7.00;;;;;19.10;87.73;101825.81;5066027;28;45414;-82
2022/07/02 06:25:01;;;;;;;;;11.25;9.25;;;;;19.17;86.86;101827.72;5059935;28;45555;-82
2022/07/02 06:27:26;;;;;;;;;8.25;7.00;;;;;19.20;86.99;101824.31;5078011;28;46172;-82
2022/07/02 06:29:52;;;;;;;;;11.50;8.50;;;;;19.25;86.52;101814.78;5076649;27;45239;-82
2022/07/02 06:32:18;;;;;;;;;11.50;8.75;;;;;19.32;86.06;101816.75;5077010;28;45219;-81
2022/07/02 06:34:44;;;;;;;;;10.25;7.50;;;;;19.32;85.25;101811.50;5078745;27;45328;-82
2022/07/02 06:37:10;;;;;;;;;8.00;8.00;;;;;19.33;85.08;101810.63;5059974;27;45398;-79
2022/07/02 06:39:36;;;;;;;;;10.50;8.75;;;;;19.40;84.25;101806.41;5077107;27;45856;-81
2022/07/02 06:42:20;;;;;;;;;7.25;6.25;;;;;19.44;83.26;101813.53;5076981;28;45340;-79
2022/07/02 06:44:47;;;;;;;;;8.00;8.00;;;;;19.50;82.92;101818.03;5078414;27;45418;-80
2022/07/02 06:47:13;;;;;;;;;10.25;9.25;;;;;19.53;83.34;101815.50;5076349;28;45699;-83
2022/07/02 06:49:39;;;;;;;;;7.25;7.00;;;;;19.53;82.85;101815.50;5076454;27;45484;-81
2022/07/02 06:52:05;;;;;;;;;12.50;11.00;;;;;19.55;82.63;101805.88;5080481;27;45784;-86
2022/07/02 06:54:32;;;;;;;;;8.00;8.00;;;;;19.60;82.48;101812.16;5080903;27;45411;-81
2022/07/02 06:56:58;;;;;;;;;6.25;6.25;;;;;19.64;79.32;101818.34;5062679;27;45540;-82
2022/07/02 06:59:23;;;;;;;;;8.25;4.00;;;;;19.66;75.91;101811.41;5079534;27;45359;-82
2022/07/02 07:01:49;;;;;;;;;5.00;5.00;;;;;19.70;72.09;101818.50;5075702;27;45637;-84
2022/07/02 07:04:15;;;;;;;;;4.25;4.25;;;;;19.72;69.78;101814.16;5077050;28;45276;-85
2022/07/02 07:06:44;;;;;;;;;4.50;4.50;;;;;19.78;68.71;101816.94;5058528;28;46610;-82
2022/07/02 07:09:09;;;;;;;;;4.25;4.25;;;;;19.81;66.44;101813.50;5076555;27;45446;-81
2022/07/02 07:11:35;;;;;;;;;2.75;2.75;;;;;19.79;64.96;101810.84;5080074;27;45338;-79
2022/07/02 07:14:02;;;;;;;;;5.25;4.25;;;;;19.84;66.06;101810.94;5081772;27;45522;-81
2022/07/02 07:16:27;;;;;;;;;4.25;3.25;;;;;19.87;66.37;101808.38;5063438;27;45665;-80
2022/07/02 07:19:05;;;;;;;;;3.00;3.00;;;;;19.91;64.81;101812.00;5079763;27;45330;-83
2022/07/02 07:21:31;;;;;;;;;2.50;2.00;;;;;19.95;64.23;101805.94;5086544;27;45335;-77
2022/07/02 07:23:57;;;;;;;;;6.00;4.25;;;;;20.00;65.40;101804.31;5086424;27;45267;-84
2022/07/02 07:26:23;;;;;;;;;2.00;2.00;;;;;20.10;63.44;101803.66;5069993;27;46954;-87
2022/07/02 07:28:49;;;;;;;;;2.75;2.00;;;;;20.29;61.51;101797.91;5076276;27;45347;-82
2022/07/02 07:31:19;;;;;;;;;3.00;3.00;;;;;20.42;61.67;101803.44;5077205;28;45938;-81
2022/07/02 07:33:46;;;;;;;;;1.50;1.50;;;;;20.47;59.84;101798.25;5072018;28;45450;-79
2022/07/02 07:36:11;;;;;;;;;3.50;3.00;;;;;20.46;61.75;101804.38;5073500;27;46587;-84
2022/07/02 07:38:37;;;;;;;;;1.50;1.50;;;;;20.46;61.17;101796.47;5096139;27;45459;-76
2022/07/02 07:41:03;;;;;;;;;3.00;3.00;;;;;20.48;60.80;101805.28;5085629;27;45406;-76
2022/07/02 07:43:29;;;;;;;;;1.00;1.00;;;;;20.53;60.20;101800.13;5078059;28;45375;-78
2022/07/02 07:45:54;;;;;;;;;2.00;1.00;;;;;20.53;60.22;101794.88;5077794;28;45921;-78
2022/07/02 07:48:20;;;;;;;;;1.25;1.25;;;;;20.59;57.65;101800.22;5088629;27;45695;-80
2022/07/02 07:50:46;;;;;;;;;1.50;1.50;;;;;20.64;56.08;101795.06;5097010;27;45378;-77
2022/07/02 07:53:11;;;;;;;;;1.75;1.50;;;;;20.61;57.68;101797.66;5071864;27;45554;-78
2022/07/02 07:55:39;;;;;;;;;2.00;2.00;;;;;20.59;58.03;101791.47;5076436;27;45964;-78
2022/07/02 07:58:05;;;;;;;;;0.50;0.50;;;;;20.61;55.96;101802.91;5060003;27;45406;-78
2022/07/02 08:00:31;;;;;;;;;1.00;1.00;;;;;20.62;56.24;101800.28;5072108;27;45474;-78
2022/07/02 08:02:56;;;;;;;;;0.25;0.00;;;;;20.63;53.82;101788.91;5097732;27;45320;-78
2022/07/02 08:05:25;;;;;;;;;2.00;2.00;;;;;20.67;55.00;101790.75;5083908;27;45502;-81
2022/07/02 08:07:51;;;;;;;;;0.25;0.25;;;;;20.68;54.60;101789.00;5055124;28;45628;-77
2022/07/02 08:10:17;;;;;;;;;1.00;1.00;;;;;20.79;53.74;101787.50;5078576;27;45357;-77
2022/07/02 08:12:43;;;;;;;;;1.00;1.00;;;;;20.89;51.97;101783.28;5076024;28;45656;-77
2022/07/02 08:15:09;;;;;;;;;1.75;1.00;;;;;20.89;52.78;101788.56;5076648;27;46170;-78
2022/07/02 08:17:36;;;;;;;;;1.50;0.00;;;;;20.86;53.26;101783.22;5024623;27;45778;-78
2022/07/02 08:20:05;;;;;;;;;2.00;2.00;;;;;20.85;52.61;101789.34;5075768;27;45584;-81
2022/07/02 08:22:39;;;;;;;;;1.00;1.00;;;;;20.82;52.80;101790.19;5076101;27;45344;-81
2022/07/02 08:25:07;;;;;;;;;2.25;1.00;;;;;20.82;53.14;101787.56;5071134;27;47134;-81
2022/07/02 08:27:33;;;;;;;;;0.75;0.75;;;;;20.80;53.36;101797.16;5088048;27;45697;-88
2022/07/02 08:30:08;;;;;;;;;0.00;0.00;;;;;20.82;52.47;101787.56;5076395;27;45287;-88
2022/07/02 08:32:34;;;;;;;;;0.75;0.75;;;;;20.82;51.95;101779.66;5072854;27;45367;-83
2022/07/02 08:35:00;;;;;;;;;0.50;0.50;;;;;20.89;51.79;101788.56;5078301;27;46150;-82
2022/07/02 08:37:26;;;;;;;;;0.00;0.00;;;;;20.90;52.56;101771.88;5092575;27;46019;-81
2022/07/02 08:39:52;;;;;;;;;1.00;1.00;;;;;20.91;53.38;101772.78;5074746;27;45563;-79
2022/07/02 08:42:29;;;;;;;;;1.00;1.00;;;;;20.91;53.53;101773.66;5090604;27;45680;-80
2022/07/02 08:44:57;;;;;;;;;1.00;1.00;;;;;20.93;52.85;101777.19;5097835;27;45461;-81
2022/07/02 08:47:24;;;;;;;;;1.00;1.00;;;;;20.95;51.96;101775.47;5081093;27;45794;-82
2022/07/02 08:49:55;;;;;;;;;0.50;0.50;;;;;21.00;52.29;101775.56;5081855;27;45242;-80
2022/07/02 08:52:22;;;;;;;;;1.00;1.00;;;;;21.01;51.70;101775.56;5081299;27;45558;-81
2022/07/02 08:54:49;;;;;;;;;1.00;1.00;;;;;21.01;51.27;101761.53;5080804;27;45467;-80
2022/07/02 08:57:16;;;;;;;;;3.25;1.75;;;;;21.07;51.18;101769.53;5099850;27;45243;-80
2022/07/02 08:59:42;;;;;;;;;1.00;1.00;;;;;21.10;50.81;101780.13;5081673;27;45346;-81
2022/07/02 09:02:10;;;;;;;;;0.00;0.00;;;;;21.12;49.95;101766.97;5100437;27;45333;-80
2022/07/02 09:04:42;;;;;;;;;0.00;0.00;;;;;21.13;50.35;101760.84;5099755;27;45429;-80
2022/07/02 09:07:09;;;;;;;;;2.00;1.00;;;;;21.15;49.76;101769.66;5099278;27;45721;-81
2022/07/02 09:09:35;;;;;;;;;0.00;0.00;;;;;21.18;49.35;101778.50;5099721;27;45452;-81
2022/07/02 09:12:03;;;;;;;;;0.25;0.25;;;;;21.19;50.40;101764.47;5099318;27;45351;-80
2022/07/02 09:14:32;;;;;;;;;0.00;0.00;;;;;21.22;49.66;101760.97;5099418;27;46188;-81
2022/07/02 09:16:58;;;;;;;;;1.00;1.00;;;;;21.25;48.61;101758.41;5099179;27;45691;-81
2022/07/02 09:19:24;;;;;;;;;0.00;0.00;;;;;21.25;48.79;101768.94;5098978;27;46043;-80
2022/07/02 09:21:51;;;;;;;;;0.00;0.00;;;;;21.26;49.01;101767.22;5099164;27;45650;-79
2022/07/02 09:24:46;;;;;;;;;0.00;0.00;;;;;21.27;48.74;101764.59;5098501;27;46286;-80
2022/07/02 09:27:14;;;;;;;;;0.00;0.00;;;;;21.28;48.96;101760.19;5076838;27;45313;-79
2022/07/02 09:29:45;;;;;;;;;0.00;0.00;;;;;21.28;48.41;101758.47;5080786;27;45303;-79
2022/07/02 09:32:11;;;;;;;;;0.50;0.50;;;;;21.28;48.93;101769.00;5099179;27;45345;-79
2022/07/02 09:34:47;;;;;;;;;1.00;1.00;;;;;21.34;48.82;101758.53;5098423;27;45363;-79
2022/07/02 09:37:21;;;;;;;;;0.00;0.00;;;;;21.34;49.19;101755.91;5098554;27;45782;-79
2022/07/02 09:39:48;;;;;;;;;1.00;0.00;;;;;21.38;49.39;101750.69;5099045;27;45232;-80
2022/07/02 09:42:25;;;;;;;;;1.00;0.00;;;;;21.40;49.81;101749.84;5098705;27;45239;-80
2022/07/02 09:44:52;;;;;;;;;0.25;0.25;;;;;21.41;50.02;101740.22;5098447;27;46101;-80
2022/07/02 09:47:32;;;;;;;;;0.25;0.25;;;;;21.47;48.76;101748.19;5098692;27;45712;-81
2022/07/02 09:50:03;;;;;;;;;1.75;1.00;;;;;21.53;48.92;101744.75;5098906;27;45347;-80
2022/07/02 09:52:29;;;;;;;;;0.75;0.50;;;;;21.56;48.97;101742.19;5099186;27;45318;-80
2022/07/02 09:54:55;;;;;;;;;2.00;1.00;;;;;21.57;49.58;101739.56;5098689;27;46005;-79
2022/07/02 09:57:23;;;;;;;;;0.00;0.00;;;;;21.56;47.64;101737.78;5097171;27;45419;-80
2022/07/02 09:59:49;;;;;;;;;0.00;0.00;;;;;21.61;47.98;101740.53;5098195;27;45247;-81
2022/07/02 10:02:22;;;;;;;;;1.75;0.25;;;;;21.62;47.70;101740.56;5098394;27;45524;-81
2022/07/02 10:04:50;;;;;;;;;0.00;0.00;;;;;21.61;47.44;101727.34;5099037;27;45360;-82
2022/07/02 10:07:16;;;;;;;;;1.00;1.00;;;;;21.63;47.64;101738.78;5102864;27;45516;-79
2022/07/02 10:09:42;;;;;;;;;0.00;0.00;;;;;21.62;47.84;101737.94;5104715;27;45338;-80
2022/07/02 10:12:08;;;;;;;;;1.00;1.00;;;;;21.67;46.93;101734.44;5101133;27;45578;-81
2022/07/02 10:14:36;;;;;;;;;1.00;0.00;;;;;21.71;47.20;101717.81;5079736;27;47202;-81
2022/07/02 10:17:03;;;;;;;;;0.25;0.00;;;;;21.76;46.60;101714.38;5097629;27;45461;-79
2022/07/02 10:19:30;;;;;;;;;0.00;0.00;;;;;21.80;46.80;101713.56;5079989;27;45289;-80
2022/07/02 10:21:57;;;;;;;;;0.50;0.50;;;;;21.84;47.17;101716.22;5108464;27;45328;-80
2022/07/02 10:24:25;;;;;;;;;1.00;0.00;;;;;21.85;47.07;101704.81;5096568;27;45343;-77
2022/07/02 10:26:52;;;;;;;;;1.00;1.00;;;;;21.87;47.17;101706.59;5099441;27;45637;-82
2022/07/02 10:29:24;;;;;;;;;1.75;1.00;;;;;21.92;48.17;101717.22;5084627;27;45320;-78
2022/07/02 10:32:05;;;;;;;;;1.00;1.00;;;;;21.99;47.94;101707.59;5077963;27;45561;-78
2022/07/02 10:34:47;;;;;;;;;3.00;1.75;;;;;22.06;47.66;101707.69;5077173;27;45282;-77
2022/07/02 10:37:15;;;;;;;;;1.00;1.00;;;;;22.07;47.88;101708.59;5059257;27;45879;-83
2022/07/02 10:39:42;;;;;;;;;1.00;1.00;;;;;22.08;47.13;101708.63;5080190;27;45556;-79
2022/07/02 10:42:09;;;;;;;;;2.00;1.00;;;;;22.10;46.40;101703.34;5098090;27;45433;-82
2022/07/02 10:44:42;;;;;;;;;0.50;0.50;;;;;22.13;46.53;101698.09;5064475;28;47083;-77
2022/07/02 10:47:19;;;;;;;;;2.25;1.00;;;;;22.15;46.27;101701.66;5076852;27;45341;-78
2022/07/02 10:49:45;;;;;;;;;0.00;0.00;;;;;22.19;46.75;101700.81;5077131;27;45470;-80
2022/07/02 10:52:10;;;;;;;;;0.25;0.25;;;;;22.19;45.53;101700.81;5058949;28;45734;-79
2022/07/02 10:54:36;;;;;;;;;0.75;0.75;;;;;22.21;45.10;101704.34;5085515;27;45836;-79
2022/07/02 10:57:01;;;;;;;;;1.00;1.00;;;;;22.21;45.63;101701.72;5096883;27;45338;-76
2022/07/02 10:59:35;;;;;;;;;1.00;1.00;;;;;22.23;45.08;101691.19;5097992;27;45217;-78
2022/07/02 11:02:05;;;;;;;;;0.50;0.00;;;;;22.23;44.53;101684.16;5097158;27;45504;-77
2022/07/02 11:04:31;;;;;;;;;0.00;0.00;;;;;22.26;44.92;101688.56;5080973;27;46200;-80
2022/07/02 11:07:12;;;;;;;;;1.00;1.00;;;;;22.30;45.37;101681.59;5077110;27;45803;-76
2022/07/02 11:09:57;;;;;;;;;2.00;2.00;;;;;22.30;45.03;101679.81;5092474;27;45470;-87
2022/07/02 11:12:44;;;;;;;;;1.00;1.00;;;;;22.40;43.65;101683.44;5079976;27;45676;-86
2022/07/02 11:15:35;;;;;;;;;1.00;1.00;;;;;22.42;43.64;101673.81;5097150;27;46102;-85
2022/07/02 11:18:05;;;;;;;;;0.50;0.50;;;;;22.46;43.94;101694.09;5078575;27;45454;-86
2022/07/02 11:20:34;;;;;;;;;2.50;2.00;;;;;22.51;44.33;101679.19;5079403;27;45489;-84
2022/07/02 11:23:00;;;;;;;;;11.50;10.25;;;;;22.59;44.14;101689.78;5079023;27;45589;-85
2022/07/02 11:25:29;;;;;;;;;4.00;4.00;;;;;22.67;44.24;101680.22;5091320;27;45984;-84
2022/07/02 11:27:58;;;;;;;;;70.75;58.50;;;;;22.73;44.89;101677.59;5071614;28;45395;-85